createdAt,value
2018-11-23T00:02:00.928Z,27.30
2018-11-23T00:04:28.596Z,27.23
2018-11-23T00:06:56.129Z,27.20
2018-11-23T00:09:23.742Z,27.16
2018-11-23T00:11:51.332Z,27.15
2018-11-23T00:14:18.936Z,27.29
2018-11-23T00:16:46.549Z,27.27
2018-11-23T00:19:14.196Z,27.18
2018-11-23T00:21:41.764Z,27.28
2018-11-23T00:24:09.420Z,27.12
2018-11-23T00:26:37.182Z,27.24
2018-11-23T00:29:04.967Z,27.28
2018-11-23T00:31:32.566Z,27.32
2018-11-23T00:34:00.219Z,27.31
2018-11-23T00:36:27.879Z,27.18
2018-11-23T00:38:55.467Z,27.21
2018-11-23T00:41:23.118Z,27.28
2018-11-23T00:43:50.745Z,27.34
2018-11-23T00:46:18.361Z,27.30
2018-11-23T00:48:46.020Z,27.34
2018-11-23T00:51:13.699Z,27.28
2018-11-23T00:53:41.297Z,27.22
2018-11-23T00:56:08.887Z,27.14
2018-11-23T00:58:36.517Z,27.32
2018-11-23T01:01:04.169Z,27.32
2018-11-23T01:03:31.897Z,27.33
2018-11-23T01:05:59.484Z,27.18
2018-11-23T01:08:27.073Z,27.33
2018-11-23T01:10:54.679Z,27.25
2018-11-23T01:13:22.299Z,27.35
2018-11-23T01:15:49.951Z,27.30
2018-11-23T01:18:17.546Z,27.28
2018-11-23T01:20:45.245Z,27.28
2018-11-23T01:23:12.904Z,27.31
2018-11-23T01:25:40.532Z,27.32
2018-11-23T01:28:08.102Z,27.30
2018-11-23T01:30:35.752Z,27.31
2018-11-23T01:33:03.399Z,27.31
2018-11-23T01:35:31.007Z,27.28
2018-11-23T01:37:58.646Z,27.46
2018-11-23T01:40:27.504Z,27.29
2018-11-23T01:42:55.374Z,27.31
2018-11-23T01:45:23.020Z,27.35
2018-11-23T01:47:50.612Z,27.34
2018-11-23T01:50:22.412Z,27.29
2018-11-23T01:52:50.789Z,27.36
2018-11-23T01:55:19.153Z,27.28
2018-11-23T01:57:47.080Z,27.30
2018-11-23T02:00:16.133Z,27.29
2018-11-23T02:02:44.075Z,27.25
2018-11-23T02:05:11.909Z,27.35
2018-11-23T02:07:39.881Z,27.29
2018-11-23T02:10:07.958Z,27.34
2018-11-23T02:12:35.613Z,27.29
2018-11-23T02:15:03.265Z,27.33
2018-11-23T02:17:30.887Z,27.41
2018-11-23T02:19:58.488Z,27.33
2018-11-23T02:22:27.197Z,27.34
2018-11-23T02:24:54.787Z,27.31
2018-11-23T02:27:22.837Z,27.42
2018-11-23T02:29:50.536Z,27.22
2018-11-23T02:32:18.222Z,27.29
2018-11-23T02:34:45.844Z,27.25
2018-11-23T02:37:13.457Z,27.37
2018-11-23T02:39:41.454Z,27.26
2018-11-23T02:42:09.113Z,27.31
2018-11-23T02:44:36.661Z,27.26
2018-11-23T02:47:04.529Z,27.35
2018-11-23T02:49:32.084Z,27.28
2018-11-23T02:51:59.676Z,27.31
2018-11-23T02:54:27.325Z,27.31
2018-11-23T02:56:54.940Z,27.25
2018-11-23T02:59:24.044Z,26.73
2018-11-23T03:01:50.320Z,27.31
2018-11-23T03:04:17.994Z,27.26
2018-11-23T03:06:45.665Z,27.31
2018-11-23T03:09:13.333Z,27.34
2018-11-23T03:11:41.707Z,27.28
2018-11-23T03:14:09.969Z,27.30
2018-11-23T03:16:37.963Z,27.35
2018-11-23T03:19:05.767Z,27.45
2018-11-23T03:21:33.406Z,27.45
2018-11-23T03:24:01.041Z,27.39
2018-11-23T03:26:28.855Z,27.31
2018-11-23T03:28:56.519Z,27.31
2018-11-23T03:31:25.350Z,27.40
2018-11-23T03:33:53.127Z,27.31
2018-11-23T03:36:21.082Z,27.35
2018-11-23T03:38:48.782Z,27.35
2018-11-23T03:41:16.592Z,27.33
2018-11-23T03:43:44.494Z,27.32
2018-11-23T03:46:12.265Z,27.37
2018-11-23T03:48:39.922Z,27.40
2018-11-23T03:51:07.898Z,27.41
2018-11-23T03:53:35.556Z,27.41
2018-11-23T03:56:03.228Z,27.29
2018-11-23T03:58:30.876Z,27.41
2018-11-23T04:00:58.688Z,27.43
2018-11-23T04:03:26.369Z,27.48
2018-11-23T04:05:54.026Z,27.44
2018-11-23T04:08:21.679Z,27.30
2018-11-23T04:10:49.326Z,27.46
2018-11-23T04:13:17.025Z,27.41
2018-11-23T04:15:44.667Z,27.45
2018-11-23T04:18:12.370Z,27.43
2018-11-23T04:20:40.051Z,27.49
2018-11-23T04:23:07.714Z,27.36
2018-11-23T04:25:35.379Z,27.36
2018-11-23T04:28:03.065Z,27.40
2018-11-23T04:30:30.723Z,27.48
2018-11-23T04:32:58.460Z,27.43
2018-11-23T04:35:26.089Z,27.42
2018-11-23T04:37:53.777Z,27.40
2018-11-23T04:40:21.423Z,27.40
2018-11-23T04:42:49.069Z,27.39
2018-11-23T04:45:16.748Z,27.40
2018-11-23T04:47:44.428Z,27.31
2018-11-23T04:50:13.400Z,27.39
2018-11-23T04:52:41.322Z,27.45
2018-11-23T04:55:09.572Z,27.43
2018-11-23T04:57:37.234Z,27.49
2018-11-23T05:00:05.484Z,27.44
2018-11-23T05:02:33.226Z,27.49
2018-11-23T05:05:00.948Z,27.33
2018-11-23T05:07:28.616Z,27.49
2018-11-23T05:09:56.245Z,27.51
2018-11-23T05:12:23.928Z,27.44
2018-11-23T05:14:51.625Z,27.44
2018-11-23T05:17:19.334Z,27.39
2018-11-23T05:19:47.046Z,27.39
2018-11-23T05:22:14.757Z,27.48
2018-11-23T05:24:42.399Z,27.49
2018-11-23T05:27:10.033Z,27.49
2018-11-23T05:29:37.681Z,27.48
2018-11-23T05:32:05.381Z,27.56
2018-11-23T05:34:33.070Z,27.58
2018-11-23T05:37:00.779Z,27.48
2018-11-23T05:39:28.447Z,27.42
2018-11-23T05:41:56.158Z,24.55
2018-11-23T05:44:23.817Z,24.07
2018-11-23T05:46:51.559Z,25.66
2018-11-23T05:49:19.221Z,26.28
2018-11-23T05:51:46.933Z,26.54
2018-11-23T05:54:14.639Z,23.53
2018-11-23T05:56:42.334Z,22.47
2018-11-23T05:59:10.133Z,21.51
2018-11-23T06:01:37.986Z,21.82
2018-11-23T06:04:05.703Z,21.53
2018-11-23T06:06:33.462Z,21.22
2018-11-23T06:09:01.177Z,23.52
2018-11-23T06:11:28.857Z,24.92
2018-11-23T06:13:56.573Z,25.49
2018-11-23T06:16:24.330Z,25.69
2018-11-23T06:18:52.147Z,25.85
2018-11-23T06:21:19.949Z,25.94
2018-11-23T06:23:47.610Z,25.85
2018-11-23T06:26:17.435Z,25.95
2018-11-23T06:28:45.144Z,25.96
2018-11-23T06:31:13.301Z,25.47
2018-11-23T06:33:43.539Z,26.09
2018-11-23T06:36:11.207Z,26.08
2018-11-23T06:38:38.931Z,26.07
2018-11-23T06:41:10.489Z,26.22
2018-11-23T06:43:34.770Z,26.27
2018-11-23T06:46:03.617Z,26.23
2018-11-23T06:48:31.278Z,26.26
2018-11-23T06:50:58.994Z,26.31
2018-11-23T06:53:26.962Z,26.35
2018-11-23T06:55:55.124Z,26.26
2018-11-23T06:58:22.995Z,26.28
2018-11-23T07:00:50.725Z,26.28
2018-11-23T07:03:18.577Z,26.37
2018-11-23T07:05:46.287Z,26.34
2018-11-23T07:08:13.974Z,26.30
2018-11-23T07:10:41.741Z,26.33
2018-11-23T07:13:09.808Z,26.38
2018-11-23T07:15:37.859Z,26.36
2018-11-23T07:18:05.650Z,26.44
2018-11-23T07:20:33.353Z,26.49
2018-11-23T07:23:00.997Z,26.51
2018-11-23T07:25:28.677Z,26.51
2018-11-23T07:27:56.394Z,26.52
2018-11-23T07:30:25.659Z,26.58
2018-11-23T07:32:53.295Z,26.50
2018-11-23T07:35:20.930Z,26.52
2018-11-23T07:37:48.676Z,26.48
2018-11-23T07:40:23.163Z,26.45
2018-11-23T07:42:51.345Z,26.52
2018-11-23T07:45:19.037Z,26.41
2018-11-23T07:47:46.807Z,26.40
2018-11-23T07:50:14.490Z,26.41
2018-11-23T07:52:42.235Z,26.44
2018-11-23T07:55:10.969Z,26.37
2018-11-23T07:57:38.692Z,26.45
2018-11-23T08:00:11.050Z,26.37
2018-11-23T08:02:38.762Z,26.45
2018-11-23T08:05:07.761Z,26.48
2018-11-23T08:07:35.461Z,26.49
2018-11-23T08:10:02.335Z,26.49
2018-11-23T08:12:30.036Z,26.46
2018-11-23T08:14:57.931Z,26.43
2018-11-23T08:17:25.608Z,26.47
2018-11-23T08:19:53.513Z,26.49
2018-11-23T08:22:21.276Z,26.48
2018-11-23T08:24:49.068Z,26.46
2018-11-23T08:27:16.751Z,26.41
2018-11-23T08:29:44.493Z,26.39
2018-11-23T08:32:12.271Z,26.37
2018-11-23T08:34:40.008Z,26.43
2018-11-23T08:37:07.733Z,26.33
2018-11-23T08:39:35.570Z,26.32
2018-11-23T08:42:03.222Z,26.42
2018-11-23T08:44:30.897Z,26.44
2018-11-23T08:46:58.627Z,26.50
2018-11-23T08:49:26.316Z,26.47
2018-11-23T08:51:54.024Z,26.44
2018-11-23T08:54:21.710Z,26.45
2018-11-23T08:56:49.478Z,26.40
2018-11-23T08:59:17.202Z,26.54
2018-11-23T09:01:44.865Z,26.50
2018-11-23T09:04:12.577Z,26.39
2018-11-23T09:06:40.197Z,26.35
2018-11-23T09:09:08.689Z,26.35
2018-11-23T09:11:36.320Z,26.47
2018-11-23T09:14:04.174Z,26.43
2018-11-23T09:16:31.797Z,26.56
2018-11-23T09:18:59.738Z,26.53
2018-11-23T09:21:27.548Z,26.53
2018-11-23T09:23:55.398Z,26.49
2018-11-23T09:26:23.042Z,26.41
2018-11-23T09:28:50.815Z,26.48
2018-11-23T09:31:18.582Z,26.44
2018-11-23T09:33:46.508Z,26.48
2018-11-23T09:36:14.251Z,26.50
2018-11-23T09:38:42.050Z,26.46
2018-11-23T09:41:09.998Z,26.45
2018-11-23T09:43:37.775Z,26.36
2018-11-23T09:46:05.775Z,26.36
2018-11-23T09:48:33.423Z,26.29
2018-11-23T09:51:01.057Z,26.37
2018-11-23T09:53:28.775Z,26.43
2018-11-23T09:55:56.477Z,26.37
2018-11-23T09:58:24.207Z,26.48
2018-11-23T10:00:51.878Z,26.48
2018-11-23T10:03:19.506Z,26.49
2018-11-23T10:05:47.226Z,26.43
2018-11-23T10:08:14.902Z,26.46
2018-11-23T10:10:42.522Z,25.60
2018-11-23T10:13:10.282Z,26.10
2018-11-23T10:15:37.940Z,26.14
2018-11-23T10:18:05.620Z,26.25
2018-11-23T10:20:34.237Z,26.27
2018-11-23T10:23:01.920Z,26.28
2018-11-23T10:25:30.849Z,26.34
2018-11-23T10:27:58.474Z,26.15
2018-11-23T10:30:27.448Z,25.07
2018-11-23T10:32:56.531Z,24.58
2018-11-23T10:35:24.373Z,24.85
2018-11-23T10:37:53.389Z,25.59
2018-11-23T10:40:22.278Z,25.80
2018-11-23T10:42:49.908Z,25.94
2018-11-23T10:45:18.834Z,26.01
2018-11-23T10:47:46.912Z,25.96
2018-11-23T10:50:16.062Z,26.11
2018-11-23T10:52:43.907Z,26.13
2018-11-23T10:55:13.248Z,26.10
2018-11-23T10:57:40.911Z,26.14
2018-11-23T11:00:14.598Z,26.06
2018-11-23T11:02:43.549Z,26.13
2018-11-23T11:05:16.649Z,26.10
2018-11-23T11:07:44.334Z,26.24
2018-11-23T11:10:12.039Z,26.13
2018-11-23T11:12:39.779Z,26.12
2018-11-23T11:15:07.613Z,26.17
2018-11-23T11:17:35.250Z,26.18
2018-11-23T11:20:03.071Z,26.19
2018-11-23T11:22:30.814Z,26.13
2018-11-23T11:24:58.435Z,26.07
2018-11-23T11:27:26.064Z,26.03
2018-11-23T11:29:53.681Z,26.06
2018-11-23T11:32:21.306Z,26.04
2018-11-23T11:34:48.925Z,26.07
2018-11-23T11:37:16.571Z,26.11
2018-11-23T11:39:44.214Z,26.08
2018-11-23T11:42:11.851Z,26.03
2018-11-23T11:44:39.463Z,26.02
2018-11-23T11:47:07.094Z,25.98
2018-11-23T11:49:34.730Z,26.03
2018-11-23T11:52:02.451Z,26.03
2018-11-23T11:54:30.083Z,26.09
2018-11-23T11:56:57.736Z,26.03
2018-11-23T11:59:25.446Z,26.05
2018-11-23T12:01:53.167Z,26.12
2018-11-23T12:04:20.781Z,26.02
2018-11-23T12:06:48.446Z,25.96
2018-11-23T12:09:16.079Z,25.95
2018-11-23T12:11:43.776Z,25.97
2018-11-23T12:14:11.417Z,25.99
2018-11-23T12:16:39.069Z,25.99
2018-11-23T12:19:08.126Z,25.96
2018-11-23T12:21:34.393Z,26.02
2018-11-23T12:24:02.013Z,26.00
2018-11-23T12:26:29.666Z,25.96
2018-11-23T12:28:57.285Z,25.96
2018-11-23T12:31:24.962Z,25.99
2018-11-23T12:33:52.590Z,25.94
2018-11-23T12:36:20.535Z,25.96
2018-11-23T12:38:48.210Z,25.90
2018-11-23T12:41:15.822Z,25.88
2018-11-23T12:43:43.542Z,25.89
2018-11-23T12:46:11.149Z,25.90
2018-11-23T12:48:38.800Z,25.88
2018-11-23T12:51:06.885Z,25.87
2018-11-23T12:53:34.510Z,25.93
2018-11-23T12:56:02.148Z,25.90
2018-11-23T12:58:29.800Z,25.85
2018-11-23T13:00:57.431Z,25.89
2018-11-23T13:03:25.092Z,25.88
2018-11-23T13:05:52.775Z,25.83
2018-11-23T13:08:20.451Z,25.82
2018-11-23T13:10:48.168Z,25.79
2018-11-23T13:13:15.804Z,25.78
2018-11-23T13:15:43.431Z,25.77
2018-11-23T13:18:11.047Z,25.82
2018-11-23T13:20:38.681Z,25.82
2018-11-23T13:23:06.446Z,25.81
2018-11-23T13:25:34.318Z,25.77
2018-11-23T13:28:02.050Z,25.75
2018-11-23T13:30:32.058Z,25.75
2018-11-23T13:32:59.684Z,25.71
2018-11-23T13:35:27.303Z,25.79
2018-11-23T13:37:54.947Z,25.85
2018-11-23T13:40:23.977Z,25.80
2018-11-23T13:42:51.915Z,25.81
2018-11-23T13:45:20.822Z,25.75
2018-11-23T13:47:48.431Z,25.76
2018-11-23T13:50:18.349Z,25.71
2018-11-23T13:52:46.874Z,25.64
2018-11-23T13:55:14.616Z,25.71
2018-11-23T13:57:42.319Z,25.62
2018-11-23T14:00:13.126Z,25.59
2018-11-23T14:02:41.002Z,25.68
2018-11-23T14:05:09.788Z,25.66
2018-11-23T14:07:37.433Z,25.73
2018-11-23T14:10:06.734Z,25.66
2018-11-23T14:12:34.354Z,25.73
2018-11-23T14:15:01.984Z,25.64
2018-11-23T14:17:29.598Z,25.59
2018-11-23T14:19:57.206Z,25.63
2018-11-23T14:22:24.853Z,25.59
2018-11-23T14:24:52.480Z,25.57
2018-11-23T14:27:20.098Z,25.60
2018-11-23T14:29:47.798Z,25.60
2018-11-23T14:32:15.423Z,25.61
2018-11-23T14:34:43.047Z,25.56
2018-11-23T14:37:10.682Z,25.51
2018-11-23T14:39:38.298Z,25.47
2018-11-23T14:42:06.154Z,25.51
2018-11-23T14:44:33.763Z,25.53
2018-11-23T14:47:01.370Z,25.53
2018-11-23T14:49:29.010Z,25.53
2018-11-23T14:51:56.662Z,25.52
2018-11-23T14:54:24.311Z,25.48
2018-11-23T14:56:51.967Z,25.42
2018-11-23T14:59:19.597Z,25.47
2018-11-23T15:01:51.996Z,25.50
2018-11-23T15:04:14.922Z,25.46
2018-11-23T15:06:42.537Z,25.47
2018-11-23T15:09:10.830Z,25.43
2018-11-23T15:11:39.011Z,25.46
2018-11-23T15:14:07.004Z,25.41
2018-11-23T15:16:34.849Z,25.52
2018-11-23T15:19:02.468Z,25.47
2018-11-23T15:21:30.094Z,25.49
2018-11-23T15:24:00.862Z,25.48
2018-11-23T15:26:25.390Z,25.40
2018-11-23T15:28:53.014Z,25.45
2018-11-23T15:31:20.662Z,25.41
2018-11-23T15:33:48.291Z,25.37
2018-11-23T15:36:15.925Z,25.34
2018-11-23T15:38:43.558Z,25.29
2018-11-23T15:41:11.177Z,25.38
2018-11-23T15:43:38.794Z,25.38
2018-11-23T15:46:06.414Z,25.36
2018-11-23T15:48:34.047Z,25.38
2018-11-23T15:51:07.049Z,25.34
2018-11-23T15:53:35.050Z,25.27
2018-11-23T15:56:02.679Z,25.31
2018-11-23T15:58:30.302Z,25.32
2018-11-23T16:00:57.946Z,25.30
2018-11-23T16:03:25.566Z,25.31
2018-11-23T16:05:53.206Z,25.23
2018-11-23T16:08:20.863Z,25.29
2018-11-23T16:10:48.642Z,25.27
2018-11-23T16:13:16.259Z,25.26
2018-11-23T16:15:43.881Z,25.32
2018-11-23T16:18:11.943Z,25.24
2018-11-23T16:20:41.037Z,25.26
2018-11-23T16:23:12.298Z,25.34
2018-11-23T16:25:40.245Z,25.27
2018-11-23T16:28:08.898Z,25.28
2018-11-23T16:30:38.126Z,25.28
2018-11-23T16:33:06.828Z,25.26
2018-11-23T16:35:35.551Z,25.16
2018-11-23T16:38:07.509Z,25.18
2018-11-23T16:40:36.679Z,25.14
2018-11-23T16:43:04.737Z,25.20
2018-11-23T16:45:33.626Z,25.26
2018-11-23T16:48:02.401Z,25.25
2018-11-23T16:50:30.355Z,25.18
2018-11-23T16:52:58.249Z,25.13
2018-11-23T16:55:26.228Z,25.19
2018-11-23T16:57:55.418Z,25.19
2018-11-23T17:00:40.840Z,25.14
2018-11-23T17:03:08.853Z,25.17
2018-11-23T17:05:38.053Z,25.07
2018-11-23T17:08:06.295Z,25.04
2018-11-23T17:10:33.914Z,25.10
2018-11-23T17:13:01.530Z,25.13
2018-11-23T17:15:29.639Z,25.03
2018-11-23T17:17:57.347Z,25.03
2018-11-23T17:20:26.413Z,25.04
2018-11-23T17:22:55.174Z,25.03
2018-11-23T17:25:23.680Z,25.07
2018-11-23T17:27:51.962Z,25.02
2018-11-23T17:30:21.049Z,25.01
2018-11-23T17:32:48.666Z,25.03
2018-11-23T17:35:16.289Z,25.05
2018-11-23T17:37:43.966Z,25.02
2018-11-23T17:40:12.573Z,25.01
2018-11-23T17:42:40.218Z,25.01
2018-11-23T17:45:15.615Z,24.98
2018-11-23T17:47:43.266Z,25.02
2018-11-23T17:50:11.701Z,25.02
2018-11-23T17:52:39.334Z,24.98
2018-11-23T17:55:07.623Z,24.97
2018-11-23T17:57:35.234Z,25.05
2018-11-23T18:00:02.989Z,24.98
2018-11-23T18:02:31.015Z,25.03
2018-11-23T18:04:58.624Z,24.99
2018-11-23T18:07:26.243Z,24.97
2018-11-23T18:09:53.853Z,24.97
2018-11-23T18:12:21.503Z,24.96
2018-11-23T18:14:49.117Z,24.96
2018-11-23T18:17:16.739Z,24.92
2018-11-23T18:19:44.367Z,24.87
2018-11-23T18:22:12.006Z,24.86
2018-11-23T18:24:39.627Z,24.89
2018-11-23T18:27:07.314Z,24.86
2018-11-23T18:29:34.921Z,24.88
2018-11-23T18:32:02.567Z,24.89
2018-11-23T18:34:30.188Z,24.93
2018-11-23T18:36:57.801Z,24.93
2018-11-23T18:39:25.460Z,24.87
2018-11-23T18:41:53.115Z,24.86
2018-11-23T18:44:20.728Z,24.89
2018-11-23T18:46:48.349Z,24.88
2018-11-23T18:49:15.994Z,24.83
2018-11-23T18:51:43.601Z,24.85
2018-11-23T18:54:11.218Z,24.84
2018-11-23T18:56:38.838Z,24.76
2018-11-23T18:59:06.450Z,24.74
2018-11-23T19:01:34.091Z,24.81
2018-11-23T19:04:01.710Z,24.86
2018-11-23T19:06:29.331Z,24.78
2018-11-23T19:08:56.954Z,24.81
2018-11-23T19:11:24.564Z,24.77
2018-11-23T19:13:52.174Z,24.89
2018-11-23T19:16:19.836Z,24.88
2018-11-23T19:18:47.466Z,24.88
2018-11-23T19:21:15.073Z,24.81
2018-11-23T19:23:42.691Z,24.89
2018-11-23T19:26:10.335Z,24.83
2018-11-23T19:28:38.049Z,24.74
2018-11-23T19:31:05.729Z,24.80
2018-11-23T19:33:33.363Z,24.75
2018-11-23T19:36:00.983Z,24.73
2018-11-23T19:38:28.599Z,24.73
2018-11-23T19:40:56.215Z,24.74
2018-11-23T19:43:23.847Z,24.75
2018-11-23T19:45:51.465Z,24.74
2018-11-23T19:48:19.090Z,24.66
2018-11-23T19:50:46.707Z,24.72
2018-11-23T19:53:14.330Z,24.71
2018-11-23T19:55:41.939Z,24.72
2018-11-23T19:58:09.613Z,24.74
2018-11-23T20:00:37.261Z,24.74
2018-11-23T20:03:04.932Z,24.71
2018-11-23T20:05:32.561Z,24.68
2018-11-23T20:08:00.169Z,24.66
2018-11-23T20:10:27.781Z,24.65
2018-11-23T20:12:55.952Z,24.62
2018-11-23T20:15:23.623Z,24.66
2018-11-23T20:17:51.257Z,24.67
2018-11-23T20:20:18.874Z,24.65
2018-11-23T20:22:47.029Z,24.64
2018-11-23T20:25:15.200Z,24.63
2018-11-23T20:27:42.849Z,24.59
2018-11-23T20:30:11.867Z,24.61
2018-11-23T20:32:39.495Z,24.69
2018-11-23T20:35:07.857Z,24.62
2018-11-23T20:37:35.502Z,24.58
2018-11-23T20:40:03.253Z,24.61
2018-11-23T20:42:30.884Z,24.63
2018-11-23T20:44:58.501Z,24.59
2018-11-23T20:47:26.122Z,24.56
2018-11-23T20:49:53.743Z,24.60
2018-11-23T20:52:21.366Z,24.60
2018-11-23T20:54:48.978Z,24.55
2018-11-23T20:57:16.595Z,24.62
2018-11-23T20:59:44.207Z,24.56
2018-11-23T21:02:11.826Z,24.58
2018-11-23T21:04:39.461Z,24.54
2018-11-23T21:07:07.069Z,24.56
2018-11-23T21:09:34.716Z,24.51
2018-11-23T21:12:02.424Z,24.50
2018-11-23T21:14:30.041Z,24.50
2018-11-23T21:16:57.669Z,24.52
2018-11-23T21:19:25.290Z,24.52
2018-11-23T21:21:52.915Z,24.50
2018-11-23T21:24:20.546Z,24.55
2018-11-23T21:26:48.238Z,24.48
2018-11-23T21:29:15.914Z,24.41
2018-11-23T21:31:43.557Z,24.39
2018-11-23T21:34:11.178Z,24.43
2018-11-23T21:36:38.818Z,24.44
2018-11-23T21:39:13.537Z,24.46
2018-11-23T21:41:35.924Z,24.40
2018-11-23T21:44:03.578Z,24.44
2018-11-23T21:46:31.250Z,24.40
2018-11-23T21:48:58.876Z,24.38
2018-11-23T21:51:26.498Z,24.39
2018-11-23T21:53:54.135Z,24.42
2018-11-23T21:56:21.771Z,24.40
2018-11-23T21:58:49.402Z,24.42
2018-11-23T22:01:17.046Z,24.36
2018-11-23T22:03:44.699Z,24.44
2018-11-23T22:06:12.326Z,24.44
2018-11-23T22:08:39.956Z,24.37
2018-11-23T22:11:07.591Z,24.44
2018-11-23T22:13:35.252Z,24.39
2018-11-23T22:16:02.879Z,24.44
2018-11-23T22:18:30.510Z,24.44
2018-11-23T22:20:58.164Z,24.41
2018-11-23T22:23:25.794Z,24.37
2018-11-23T22:25:53.407Z,24.40
2018-11-23T22:28:21.033Z,24.35
2018-11-23T22:30:48.662Z,24.38
2018-11-23T22:33:16.288Z,24.38
2018-11-23T22:35:48.161Z,24.34
2018-11-23T22:38:11.605Z,24.39
2018-11-23T22:40:39.222Z,24.38
2018-11-23T22:43:06.887Z,24.41
2018-11-23T22:45:34.526Z,24.44
2018-11-23T22:48:02.202Z,24.36
2018-11-23T22:50:30.053Z,24.33
2018-11-23T22:52:57.693Z,24.32
2018-11-23T22:55:25.303Z,24.38
2018-11-23T22:57:52.947Z,24.36
2018-11-23T23:00:30.441Z,24.30
2018-11-23T23:02:58.130Z,24.28
2018-11-23T23:05:25.750Z,24.25
2018-11-23T23:07:53.365Z,24.29
2018-11-23T23:10:21.063Z,24.30
2018-11-23T23:12:48.695Z,24.29
2018-11-23T23:15:16.331Z,24.27
2018-11-23T23:17:44.148Z,24.31
2018-11-23T23:20:13.455Z,24.30
2018-11-23T23:22:41.094Z,24.26
2018-11-23T23:25:09.284Z,24.25
2018-11-23T23:27:36.932Z,24.30
2018-11-23T23:30:05.328Z,24.27
2018-11-23T23:32:32.958Z,24.33
2018-11-23T23:35:00.633Z,24.26
2018-11-23T23:37:28.252Z,24.28
2018-11-23T23:39:55.878Z,24.19
2018-11-23T23:42:23.539Z,24.20
2018-11-23T23:44:51.181Z,24.24
2018-11-23T23:47:18.804Z,24.21
2018-11-23T23:49:46.473Z,24.22
2018-11-23T23:52:14.102Z,24.28
2018-11-23T23:54:41.740Z,24.27
2018-11-23T23:57:09.358Z,24.28
2018-11-23T23:59:36.995Z,24.25
